Flight Track Log - Related Links

Times and Time Zones

All times are in EDT time to prevent confusion due to time zone crossing. See the PDT4226 flight status page for this flight to view local times or setup timezone preferences in your user account.

Time Position Orientation Groundspeed Altitude Reporting Facility
EDT Latitude Longitude Course Direction KTS MPH feet Rate Location/Type
Thu 01:51:00 PM 41.9120 -75.8828 159° South  Level Estimated
Thu 01:52:00 PM 41.8517 -75.8706 171° South  Level FlightAware Approximate
Thu 01:53:00 PM 41.7914 -75.8585 171° South  Level FlightAware Approximate
Thu 01:54:00 PM 41.7321 -75.8388 153° Southeast  Level Estimated
Thu 01:55:00 PM 41.6729 -75.8193 161° South  Level Estimated
Thu 01:56:00 PM 41.6137 -75.7993 166° South  Level FlightAware Approximate
Thu 01:57:00 PM 41.5546 -75.7795 166° South  Level FlightAware Approximate
Thu 01:58:00 PM 41.4953 -75.7600 162° South  Level Estimated
Thu 01:59:00 PM 41.4368 -75.7370 164° South  Level FlightAware Approximate
Thu 02:00:00 PM 41.3783 -75.7141 164° South  Level FlightAware Approximate
Thu 02:01:00 PM 41.3198 -75.6911 164° South  Level FlightAware Approximate
Thu 02:02:00 PM 41.2604 -75.6723 159° South  Level Estimated
Thu 02:03:00 PM 41.2011 -75.6535 163° South  Level Estimated
Thu 02:04:00 PM 41.1429 -75.6289 162° South  Level FlightAware Approximate
Thu 02:05:00 PM 41.0848 -75.6043 162° South  Level FlightAware Approximate
Thu 02:06:00 PM 41.0267 -75.5798 162° South  Level FlightAware Approximate
Thu 02:07:00 PM 40.9672 -75.5621 190° South  Level Estimated
Thu 02:08:00 PM 40.9065 -75.5540 174° South  Level FlightAware Approximate
Thu 02:09:00 PM 40.8458 -75.5459 174° South  Level FlightAware Approximate
Thu 02:10:00 PM 40.7851 -75.5378 174° South  Level FlightAware Approximate
Thu 02:11:00 PM 40.7259 -75.5183 187° South  Level Estimated
Thu 02:12:00 PM 40.6649 -75.5180 180° South  Level FlightAware Approximate
Thu 02:13:00 PM 40.6059 -75.4971 190° South  Level Estimated
Thu 02:14:00 PM 40.5453 -75.5062 186° South  Level FlightAware Approximate
Thu 02:15:00 PM 40.4869 -75.4829 180° South  Level Estimated
Thu 02:16:00 PM 40.4285 -75.4597 143° Southeast  Level Estimated
Thu 02:17:00 PM 40.3701 -75.4366 143° Southeast  Level Estimated
Thu 02:18:00 PM 40.3117 -75.4135 143° Southeast  Level Estimated
Thu 02:19:00 PM 40.2533 -75.3904 143° Southeast  Level Estimated
Thu 02:19:09 PM 40.5333 -75.5000 150° Southeast 220 253 5,100  Level Philadelphia TRACON
Thu 02:19:21 PM 40.5167 -75.5000 180° South 221 254 5,100  Level Philadelphia TRACON
Thu 02:20:00 PM 40.1949 -75.3674 123° Southeast  Level Estimated
Thu 02:20:21 PM 40.4667 -75.5167 194° South 221 254 5,100  Level Philadelphia TRACON
Thu 02:21:00 PM 40.1365 -75.3444 90° East  Level Estimated
Thu 02:21:21 PM 40.4000 -75.5333 191° South 220 253 5,100  Level Philadelphia TRACON
Thu 02:22:00 PM 40.0781 -75.3214 150° Southeast  Level Estimated
Thu 02:22:21 PM 40.3333 -75.5333 180° South 220 253 5,100  Level Philadelphia TRACON
Thu 02:23:00 PM 40.0196 -75.2985 150° Southeast  Level Estimated
Thu 02:23:22 PM 40.2833 -75.5333 180° South 240 276 5,100  Level Philadelphia TRACON
Thu 02:24:00 PM 39.9612 -75.2756 150° Southeast  Level Estimated
Thu 02:24:22 PM 40.2833 -75.4500 90° East 237 273 5,100  Level Philadelphia TRACON
Thu 02:25:22 PM 40.2833 -75.3500 90° East 236 272 5,100  Level Philadelphia TRACON
Thu 02:26:22 PM 40.3000 -75.2667 75° East 236 272 5,100  Level Philadelphia TRACON
Thu 02:27:22 PM 40.2833 -75.2000 108° East 237 273 5,100 -450 Level Philadelphia TRACON
Thu 02:28:22 PM 40.2167 -75.2167 191° South 235 270 4,200 -500 Descending Philadelphia TRACON
Thu 02:29:22 PM 40.1667 -75.2500 207° Southwest 212 244 4,100 -50 Descending Philadelphia TRACON
Thu 02:30:22 PM 40.1000 -75.2333 169° South 231 266 4,100 -50 Level Philadelphia TRACON
Thu 02:31:22 PM 40.0333 -75.2167 169° South 227 261 4,000 -50 Descending Philadelphia TRACON
Thu 02:32:22 PM 39.9833 -75.1833 153° Southeast 223 257 4,000  Level Philadelphia TRACON
Thu 02:33:22 PM 39.9333 -75.1500 153° Southeast 203 234 4,000 -200 Level Philadelphia TRACON
Thu 02:34:22 PM 39.8667 -75.1333 169° South 204 235 3,600 -1,100 Descending Philadelphia TRACON
Thu 02:35:22 PM 39.8333 -75.1500 201° Southwest 171 197 1,800 -1,100 Descending Philadelphia TRACON
Thu 02:36:22 PM 39.8167 -75.2000 247° West 131 151 1,400 -600 Descending Philadelphia TRACON
Thu 02:37:22 PM 39.8500 -75.2167 339° North 115 132 600 -800 Descending Philadelphia TRACON

Login

Don't have an account? Register now (free) for customized features, flight alerts, and more!